createdAt,value
2023-04-14T00:00:26.737Z,3.30
2023-04-14T00:02:54.961Z,3.30
2023-04-14T00:05:23.536Z,3.30
2023-04-14T00:07:51.768Z,3.30
2023-04-14T00:10:20.442Z,3.30
2023-04-14T00:12:48.635Z,3.40
2023-04-14T00:15:19.086Z,3.30
2023-04-14T00:17:47.233Z,3.30
2023-04-14T00:20:15.712Z,3.20
2023-04-14T00:22:43.798Z,3.20
2023-04-14T00:25:12.004Z,3.20
2023-04-14T00:27:40.246Z,3.30
2023-04-14T00:30:09.631Z,3.20
2023-04-14T00:32:39.081Z,3.20
2023-04-14T00:35:07.918Z,3.30
2023-04-14T00:37:36.096Z,3.30
2023-04-14T00:40:20.582Z,3.30
2023-04-14T00:42:49.127Z,3.30
2023-04-14T00:45:17.806Z,3.30
2023-04-14T00:47:49.351Z,3.30
2023-04-14T00:50:19.506Z,3.30
2023-04-14T00:52:50.205Z,3.20
2023-04-14T00:55:20.648Z,3.20
2023-04-14T00:57:53.408Z,3.10
2023-04-14T01:00:22.180Z,3.00
2023-04-14T01:02:51.937Z,2.90
2023-04-14T01:10:01.449Z,2.80
2023-04-14T01:12:46.797Z,2.50
2023-04-14T01:15:22.726Z,2.30
2023-04-14T01:18:01.673Z,2.40
2023-04-14T01:20:34.489Z,2.40
2023-04-14T01:23:07.314Z,2.40
2023-04-14T01:26:10.385Z,2.40
2023-04-14T01:28:50.597Z,2.40
2023-04-14T01:31:27.619Z,2.40
2023-04-14T01:34:05.978Z,2.40
2023-04-14T01:36:44.164Z,2.50
2023-04-14T01:39:17.457Z,2.50
2023-04-14T01:41:49.710Z,2.60
2023-04-14T01:44:22.915Z,2.60
2023-04-14T01:46:57.774Z,2.60
2023-04-14T01:52:26.348Z,2.60
2023-04-14T01:55:04.443Z,2.60
2023-04-14T01:57:40.788Z,2.50
2023-04-14T02:00:11.112Z,2.50
2023-04-14T02:02:43.121Z,2.50
2023-04-14T02:05:14.872Z,2.60
2023-04-14T02:07:52.384Z,2.50
2023-04-14T02:10:22.926Z,2.50
2023-04-14T02:13:00.980Z,2.60
2023-04-14T02:15:34.766Z,2.60
2023-04-14T02:18:07.992Z,2.60
2023-04-14T02:20:45.820Z,2.50
2023-04-14T02:23:17.861Z,2.40
2023-04-14T02:25:55.138Z,2.50
2023-04-14T02:28:29.384Z,2.30
2023-04-14T02:30:59.998Z,2.40
2023-04-14T02:34:16.392Z,2.30
2023-04-14T02:36:51.160Z,2.40
2023-04-14T02:39:26.313Z,2.30
2023-04-14T02:42:04.994Z,2.40
2023-04-14T02:44:42.886Z,2.50
2023-04-14T02:47:14.773Z,2.30
2023-04-14T02:49:47.890Z,2.20
2023-04-14T02:52:20.644Z,2.20
2023-04-14T02:54:50.554Z,2.10
2023-04-14T02:57:22.637Z,2.20
2023-04-14T02:59:53.422Z,2.20
2023-04-14T03:02:22.986Z,2.00
2023-04-14T03:04:53.797Z,2.10
2023-04-14T03:07:24.113Z,2.00
2023-04-14T03:09:53.747Z,2.10
2023-04-14T03:12:25.517Z,2.20
2023-04-14T03:14:58.079Z,2.10
2023-04-14T03:17:27.785Z,2.30
2023-04-14T03:20:00.391Z,2.30
2023-04-14T03:22:55.718Z,2.30
2023-04-14T03:25:24.428Z,2.20
2023-04-14T03:27:54.718Z,2.10
2023-04-14T03:30:27.124Z,2.10
2023-04-14T03:33:01.172Z,2.20
2023-04-14T03:35:32.210Z,2.00
2023-04-14T03:38:05.612Z,2.10
2023-04-14T03:40:38.356Z,2.00
2023-04-14T03:43:48.161Z,2.00
2023-04-14T03:46:16.797Z,1.90
2023-04-14T03:48:49.063Z,2.00
2023-04-14T03:51:21.881Z,2.10
2023-04-14T03:53:52.324Z,2.10
2023-04-14T03:56:22.847Z,2.10
2023-04-14T03:58:55.923Z,2.10
2023-04-14T04:01:26.934Z,2.10
2023-04-14T04:03:55.962Z,2.10
2023-04-14T04:06:32.984Z,2.00
2023-04-14T04:09:08.665Z,2.10
2023-04-14T04:11:39.202Z,2.20
2023-04-14T04:14:16.162Z,2.20
2023-04-14T04:20:12.740Z,2.20
2023-04-14T04:22:48.015Z,2.10
2023-04-14T04:25:16.903Z,2.10
2023-04-14T04:27:45.728Z,2.20
2023-04-14T04:30:16.489Z,2.20
2023-04-14T04:32:44.794Z,2.20
2023-04-14T04:35:13.729Z,2.00
2023-04-14T04:37:48.540Z,2.00
2023-04-14T04:40:16.857Z,2.10
2023-04-14T04:46:00.804Z,1.90
2023-04-14T04:48:29.092Z,1.90
2023-04-14T04:50:57.332Z,2.00
2023-04-14T04:53:26.850Z,1.90
2023-04-14T04:55:54.952Z,1.90
2023-04-14T04:58:23.399Z,1.90
2023-04-14T05:00:51.586Z,1.90
2023-04-14T05:03:19.979Z,1.90
2023-04-14T05:05:48.454Z,1.90
2023-04-14T05:08:16.834Z,1.90
2023-04-14T05:10:49.246Z,1.80
2023-04-14T05:13:17.709Z,1.90
2023-04-14T05:15:46.066Z,1.90
2023-04-14T05:18:14.437Z,2.00
2023-04-14T05:20:45.404Z,1.80
2023-04-14T05:23:13.521Z,1.80
2023-04-14T05:25:42.080Z,1.70
2023-04-14T05:28:13.946Z,1.70
2023-04-14T05:30:47.485Z,1.70
2023-04-14T05:33:15.726Z,1.60
2023-04-14T05:35:44.633Z,1.60
2023-04-14T05:38:13.192Z,1.70
2023-04-14T05:40:41.903Z,1.90
2023-04-14T05:43:11.447Z,1.90
2023-04-14T05:45:39.762Z,1.70
2023-04-14T05:48:08.030Z,1.60
2023-04-14T05:50:37.595Z,1.70
2023-04-14T05:53:33.634Z,1.80
2023-04-14T05:56:03.456Z,1.80
2023-04-14T05:58:33.152Z,1.80
2023-04-14T06:01:01.224Z,1.90
2023-04-14T06:03:37.027Z,2.00
2023-04-14T06:06:09.005Z,1.90
2023-04-14T06:08:37.095Z,2.00
2023-04-14T06:11:05.378Z,1.90
2023-04-14T06:13:36.264Z,2.10
2023-04-14T06:16:04.932Z,2.10
2023-04-14T06:18:34.766Z,2.10
2023-04-14T06:21:08.182Z,2.20
2023-04-14T06:23:36.470Z,2.10
2023-04-14T06:26:05.568Z,2.00
2023-04-14T06:28:35.160Z,1.90
2023-04-14T06:31:03.281Z,2.10
2023-04-14T06:33:31.785Z,2.00
2023-04-14T06:36:00.186Z,1.90
2023-04-14T06:38:29.716Z,2.00
2023-04-14T06:40:57.940Z,2.00
2023-04-14T06:43:30.323Z,2.10
2023-04-14T06:46:05.410Z,2.30
2023-04-14T06:48:33.651Z,2.60
2023-04-14T06:51:04.741Z,2.70
2023-04-14T06:53:35.995Z,3.20
2023-04-14T06:56:04.165Z,3.20
2023-04-14T06:58:32.623Z,3.00
2023-04-14T07:01:03.948Z,2.90
2023-04-14T07:03:34.636Z,2.90
2023-04-14T07:06:07.817Z,2.70
2023-04-14T07:08:36.104Z,2.60
2023-04-14T07:11:07.093Z,2.90
2023-04-14T07:13:35.637Z,2.70
2023-04-14T07:16:06.535Z,2.90
2023-04-14T07:18:34.910Z,2.90
2023-04-14T07:21:03.709Z,2.80
2023-04-14T07:23:38.474Z,2.80
2023-04-14T07:26:07.418Z,2.90
2023-04-14T07:28:35.637Z,3.20
2023-04-14T07:31:10.913Z,3.50
2023-04-14T07:33:39.892Z,3.40
2023-04-14T07:36:09.418Z,3.30
2023-04-14T07:38:37.551Z,3.70
2023-04-14T07:41:07.223Z,3.80
2023-04-14T07:43:36.296Z,3.50
2023-04-14T07:46:06.019Z,3.40
2023-04-14T07:48:37.146Z,3.90
2023-04-14T07:51:06.439Z,4.20
2023-04-14T07:53:40.439Z,4.50
2023-04-14T07:56:11.175Z,5.40
2023-04-14T07:58:39.453Z,4.80
2023-04-14T08:01:07.695Z,5.00
2023-04-14T08:03:42.069Z,4.80
2023-04-14T08:06:11.961Z,4.70
2023-04-14T08:08:41.223Z,5.20
2023-04-14T08:11:09.380Z,5.60
2023-04-14T08:13:37.458Z,5.30
2023-04-14T08:16:06.043Z,5.50
2023-04-14T08:18:34.208Z,7.00
2023-04-14T08:21:03.653Z,7.00
2023-04-14T08:26:41.179Z,7.20
2023-04-14T08:29:09.277Z,8.50
2023-04-14T08:31:37.672Z,8.30
2023-04-14T08:34:10.903Z,7.90
2023-04-14T08:37:14.255Z,8.80
2023-04-14T08:39:42.636Z,9.60
2023-04-14T08:42:21.686Z,10.10
2023-04-14T08:44:52.633Z,10.90
2023-04-14T08:47:21.121Z,10.80
2023-04-14T08:50:02.762Z,9.60
2023-04-14T08:52:38.602Z,8.90
2023-04-14T08:55:08.468Z,10.30
2023-04-14T08:57:41.503Z,11.70
2023-04-14T09:00:20.888Z,11.80
2023-04-14T09:02:49.482Z,12.50
2023-04-14T09:05:37.945Z,11.60
2023-04-14T09:08:31.152Z,12.70
2023-04-14T09:11:30.820Z,10.60
2023-04-14T09:14:04.273Z,10.70
2023-04-14T09:16:34.326Z,9.90
2023-04-14T09:19:24.852Z,10.20
2023-04-14T09:22:12.541Z,9.80
2023-04-14T09:24:47.489Z,9.70
2023-04-14T09:27:20.693Z,10.30
2023-04-14T09:30:03.728Z,10.00
2023-04-14T09:32:41.819Z,10.20
2023-04-14T09:35:13.956Z,10.40
2023-04-14T09:45:26.532Z,10.40
2023-04-14T09:48:08.590Z,10.70
2023-04-14T09:51:00.113Z,10.80
2023-04-14T09:53:31.127Z,11.00
2023-04-14T09:56:09.747Z,10.60
2023-04-14T09:58:38.737Z,10.50
2023-04-14T10:01:16.524Z,10.60
2023-04-14T10:03:46.439Z,10.70
2023-04-14T10:06:32.502Z,10.80
2023-04-14T10:09:01.094Z,11.00
2023-04-14T10:11:32.633Z,10.80
2023-04-14T10:14:04.731Z,10.90
2023-04-14T10:16:41.605Z,10.90
2023-04-14T10:19:13.256Z,11.00
2023-04-14T10:22:10.678Z,11.00
2023-04-14T10:24:45.393Z,11.00
2023-04-14T10:27:24.069Z,10.90
2023-04-14T10:30:10.010Z,10.60
2023-04-14T10:35:43.078Z,10.90
2023-04-14T10:38:11.750Z,10.70
2023-04-14T10:40:47.885Z,10.90
2023-04-14T10:43:18.055Z,11.10
2023-04-14T10:45:55.507Z,11.40
2023-04-14T10:48:28.759Z,11.40
2023-04-14T10:51:00.248Z,11.50
2023-04-14T10:53:28.641Z,12.10
2023-04-14T10:56:04.965Z,12.20
2023-04-14T10:58:38.450Z,12.60
2023-04-14T11:01:26.832Z,12.40
2023-04-14T11:04:12.368Z,12.10
2023-04-14T11:06:55.305Z,11.80
2023-04-14T11:09:25.670Z,11.90
2023-04-14T11:11:56.666Z,11.90
2023-04-14T11:14:28.810Z,12.30
2023-04-14T11:17:03.794Z,12.00
2023-04-14T11:19:34.532Z,12.10
2023-04-14T11:22:19.080Z,12.10
2023-04-14T11:24:49.270Z,12.20
2023-04-14T11:27:18.122Z,12.10
2023-04-14T11:29:50.004Z,12.00
2023-04-14T11:32:18.176Z,12.30
2023-04-14T11:38:22.252Z,11.80
2023-04-14T11:40:51.380Z,11.80
2023-04-14T11:43:22.162Z,11.70
2023-04-14T11:45:53.573Z,11.90
2023-04-14T11:48:21.956Z,12.00
2023-04-14T11:53:58.793Z,12.00
2023-04-14T11:56:27.383Z,12.10
2023-04-14T11:59:02.023Z,12.10
2023-04-14T12:01:30.837Z,12.00
2023-04-14T12:03:59.653Z,11.80
2023-04-14T12:07:13.834Z,12.20
2023-04-14T12:11:06.891Z,11.90
2023-04-14T12:13:53.884Z,11.60
2023-04-14T12:16:47.600Z,11.40
2023-04-14T12:19:39.634Z,11.70
2023-04-14T12:22:09.671Z,11.50
2023-04-14T12:24:40.988Z,11.20
2023-04-14T12:27:19.093Z,11.30
2023-04-14T12:29:50.253Z,11.50
2023-04-14T12:32:19.759Z,12.10
2023-04-14T12:34:58.656Z,11.70
2023-04-14T12:37:34.317Z,11.60
2023-04-14T12:40:12.559Z,12.10
2023-04-14T12:42:49.449Z,12.00
2023-04-14T12:48:08.524Z,11.70
2023-04-14T12:50:36.843Z,11.90
2023-04-14T12:53:23.756Z,12.10
2023-04-14T12:56:08.910Z,12.40
2023-04-14T12:58:58.893Z,12.30
2023-04-14T13:01:29.877Z,12.70
2023-04-14T13:04:06.945Z,12.80
2023-04-14T13:06:35.678Z,12.70
2023-04-14T13:09:30.281Z,12.80
2023-04-14T13:11:59.224Z,12.50
2023-04-14T13:14:34.868Z,12.30
2023-04-14T13:17:14.009Z,11.80
2023-04-14T13:20:19.793Z,12.60
2023-04-14T13:23:41.782Z,12.20
2023-04-14T13:26:11.339Z,12.70
2023-04-14T13:28:39.636Z,13.20
2023-04-14T13:31:19.495Z,12.30
2023-04-14T13:33:56.665Z,12.10
2023-04-14T13:36:41.564Z,12.00
2023-04-14T13:42:11.529Z,12.20
2023-04-14T13:44:43.660Z,12.10
2023-04-14T13:53:05.785Z,12.40
2023-04-14T13:55:36.691Z,12.50
2023-04-14T13:58:05.194Z,12.70
2023-04-14T14:00:35.956Z,12.80
2023-04-14T14:03:11.381Z,13.00
2023-04-14T14:05:41.466Z,13.50
2023-04-14T14:08:18.007Z,13.40
2023-04-14T14:10:46.255Z,13.40
2023-04-14T14:13:17.300Z,13.30
2023-04-14T14:15:46.666Z,13.40
2023-04-14T14:18:33.201Z,13.70
2023-04-14T14:21:03.112Z,13.90
2023-04-14T14:23:32.889Z,13.50
2023-04-14T14:26:05.910Z,13.00
2023-04-14T14:28:59.895Z,13.10
2023-04-14T14:31:35.583Z,13.80
2023-04-14T14:34:05.321Z,13.70
2023-04-14T14:36:33.375Z,13.40
2023-04-14T14:39:02.816Z,13.70
2023-04-14T14:41:31.232Z,13.30
2023-04-14T14:44:00.092Z,13.70
2023-04-14T14:46:30.005Z,14.00
2023-04-14T14:48:59.262Z,13.70
2023-04-14T14:51:27.816Z,13.70
2023-04-14T14:54:21.837Z,13.50
2023-04-14T14:56:55.000Z,13.30
2023-04-14T14:59:23.163Z,13.60
2023-04-14T15:01:54.245Z,13.40
2023-04-14T15:04:22.631Z,13.30
2023-04-14T15:06:59.724Z,13.20
2023-04-14T15:10:28.791Z,13.30
2023-04-14T15:13:11.214Z,13.20
2023-04-14T15:15:40.715Z,13.30
2023-04-14T15:18:10.657Z,13.10
2023-04-14T15:23:48.973Z,13.30
2023-04-14T15:26:17.554Z,13.50
2023-04-14T15:28:49.480Z,13.70
2023-04-14T15:31:17.577Z,13.50
2023-04-14T15:33:46.212Z,13.70
2023-04-14T15:36:14.469Z,13.70
2023-04-14T15:38:42.944Z,13.30
2023-04-14T15:41:11.141Z,13.30
2023-04-14T15:43:39.786Z,13.40
2023-04-14T15:46:09.236Z,13.70
2023-04-14T15:48:37.387Z,13.70
2023-04-14T15:51:07.484Z,13.50
2023-04-14T15:53:41.529Z,13.60
2023-04-14T15:56:12.085Z,13.60
2023-04-14T15:58:40.152Z,13.80
2023-04-14T16:01:10.114Z,13.70
2023-04-14T16:03:38.762Z,13.50
2023-04-14T16:06:08.225Z,13.00
2023-04-14T16:08:36.432Z,13.30
2023-04-14T16:11:14.593Z,13.40
2023-04-14T16:13:45.736Z,13.20
2023-04-14T16:16:20.897Z,13.10
2023-04-14T16:18:49.680Z,13.00
2023-04-14T16:21:21.908Z,13.00
2023-04-14T16:23:52.324Z,13.20
2023-04-14T16:26:21.343Z,13.00
2023-04-14T16:28:51.359Z,12.60
2023-04-14T16:31:26.774Z,13.00
2023-04-14T16:33:55.288Z,12.90
2023-04-14T16:36:31.287Z,12.80
2023-04-14T16:39:06.374Z,12.80
2023-04-14T16:42:06.405Z,12.60
2023-04-14T16:44:51.345Z,12.70
2023-04-14T16:47:28.871Z,12.70
2023-04-14T16:49:59.096Z,12.60
2023-04-14T16:55:35.179Z,12.60
2023-04-14T16:58:09.476Z,12.50
2023-04-14T17:00:39.529Z,12.60
2023-04-14T17:03:10.265Z,12.50
2023-04-14T17:05:44.640Z,12.40
2023-04-14T17:08:24.575Z,12.40
2023-04-14T17:14:25.924Z,12.20
2023-04-14T17:17:03.711Z,12.20
2023-04-14T17:19:35.428Z,12.10
2023-04-14T17:22:03.853Z,12.00
2023-04-14T17:24:32.005Z,12.00
2023-04-14T17:27:02.274Z,12.00
2023-04-14T17:29:30.511Z,11.90
2023-04-14T17:31:59.216Z,11.80
2023-04-14T17:34:28.556Z,11.80
2023-04-14T17:37:04.910Z,11.70
2023-04-14T17:39:33.063Z,11.70
2023-04-14T17:42:01.552Z,11.60
2023-04-14T17:44:33.790Z,11.60
2023-04-14T17:47:11.483Z,11.50
2023-04-14T17:49:43.147Z,11.40
2023-04-14T17:52:12.645Z,11.40
2023-04-14T17:54:42.285Z,11.30
2023-04-14T17:57:13.231Z,11.20
2023-04-14T17:59:54.180Z,11.20
2023-04-14T18:02:25.971Z,11.10
2023-04-14T18:04:54.220Z,11.10
2023-04-14T18:07:23.815Z,11.00
2023-04-14T18:09:53.740Z,11.00
2023-04-14T18:12:22.665Z,11.00
2023-04-14T18:14:51.132Z,10.90
2023-04-14T18:17:19.805Z,10.80
2023-04-14T18:19:48.457Z,10.70
2023-04-14T18:22:21.348Z,10.70
2023-04-14T18:24:52.173Z,10.60
2023-04-14T18:30:03.077Z,10.40
2023-04-14T18:32:31.580Z,10.30
2023-04-14T18:34:59.789Z,10.20
2023-04-14T18:37:31.372Z,10.20
2023-04-14T18:40:02.418Z,10.20
2023-04-14T18:42:31.620Z,10.20
2023-04-14T18:45:00.252Z,10.10
2023-04-14T18:47:28.978Z,10.10
2023-04-14T18:49:57.230Z,10.00
2023-04-14T18:52:25.714Z,10.00
2023-04-14T18:54:58.255Z,9.90
2023-04-14T18:57:29.176Z,9.90
2023-04-14T18:59:57.442Z,9.90
2023-04-14T19:02:26.288Z,9.90
2023-04-14T19:04:57.355Z,9.90
2023-04-14T19:07:32.554Z,9.90
2023-04-14T19:10:05.174Z,9.80
2023-04-14T19:12:44.338Z,9.70
2023-04-14T19:15:15.404Z,9.70
2023-04-14T19:17:46.826Z,9.60
2023-04-14T19:20:20.027Z,9.60
2023-04-14T19:22:49.312Z,9.50
2023-04-14T19:25:26.058Z,9.50
2023-04-14T19:28:02.405Z,9.50
2023-04-14T19:30:56.270Z,9.40
2023-04-14T19:33:26.747Z,9.30
2023-04-14T19:35:56.206Z,9.20
2023-04-14T19:38:26.452Z,9.10
2023-04-14T19:40:56.701Z,9.00
2023-04-14T19:47:15.456Z,8.90
2023-04-14T19:49:44.874Z,8.80
2023-04-14T19:52:13.280Z,8.80
2023-04-14T19:54:42.376Z,8.70
2023-04-14T19:57:12.278Z,8.70
2023-04-14T19:59:49.982Z,8.60
2023-04-14T20:02:19.743Z,8.60
2023-04-14T20:04:48.464Z,8.50
2023-04-14T20:07:16.712Z,8.50
2023-04-14T20:09:47.341Z,8.40
2023-04-14T20:12:15.483Z,8.40
2023-04-14T20:14:44.956Z,8.40
2023-04-14T20:17:13.743Z,8.30
2023-04-14T20:19:44.772Z,8.30
2023-04-14T20:22:13.582Z,8.20
2023-04-14T20:24:41.659Z,8.20
2023-04-14T20:27:09.723Z,8.20
2023-04-14T20:29:38.093Z,8.10
2023-04-14T20:32:09.979Z,8.10
2023-04-14T20:34:38.340Z,8.00
2023-04-14T20:37:08.804Z,8.10
2023-04-14T20:39:36.901Z,7.90
2023-04-14T20:42:05.783Z,7.90
2023-04-14T20:44:33.839Z,7.90
2023-04-14T20:47:04.134Z,7.90
2023-04-14T20:49:32.459Z,7.90
2023-04-14T20:52:00.682Z,7.80
2023-04-14T20:54:30.160Z,7.80
2023-04-14T20:56:58.899Z,7.70
2023-04-14T20:59:32.707Z,7.70
2023-04-14T21:02:02.249Z,7.60
2023-04-14T21:04:35.424Z,7.50
2023-04-14T21:07:08.785Z,7.40
2023-04-14T21:09:40.158Z,7.40
2023-04-14T21:12:14.720Z,7.20
2023-04-14T21:15:50.638Z,7.00
2023-04-14T21:18:14.340Z,6.90
2023-04-14T21:20:46.574Z,6.80
2023-04-14T21:23:21.312Z,6.70
2023-04-14T21:26:00.014Z,6.70
2023-04-14T21:28:43.054Z,6.70
2023-04-14T21:31:14.683Z,6.70
2023-04-14T21:34:03.276Z,6.70
2023-04-14T21:36:32.422Z,6.70
2023-04-14T21:39:02.223Z,6.70
2023-04-14T21:41:36.081Z,6.70
2023-04-14T21:44:07.570Z,6.60
2023-04-14T21:46:41.790Z,6.60
2023-04-14T21:49:21.429Z,6.60
2023-04-14T21:51:58.194Z,6.50
2023-04-14T21:54:31.992Z,6.50
2023-04-14T21:57:01.734Z,6.50
2023-04-14T21:59:29.786Z,6.40
2023-04-14T22:01:59.232Z,6.40
2023-04-14T22:04:36.485Z,6.30
2023-04-14T22:07:06.594Z,6.30
2023-04-14T22:09:35.672Z,6.20
2023-04-14T22:12:05.169Z,6.20
2023-04-14T22:14:33.907Z,6.20
2023-04-14T22:17:02.375Z,6.20
2023-04-14T22:19:30.508Z,6.20
2023-04-14T22:22:00.227Z,6.10
2023-04-14T22:24:28.850Z,6.10
2023-04-14T22:26:57.426Z,6.00
2023-04-14T22:29:29.541Z,6.00
2023-04-14T22:31:57.745Z,6.00
2023-04-14T22:34:29.196Z,6.00
2023-04-14T22:36:58.848Z,6.00
2023-04-14T22:39:27.965Z,6.00
2023-04-14T22:41:56.305Z,6.00
2023-04-14T22:44:24.677Z,5.80
2023-04-14T22:46:54.144Z,5.80
2023-04-14T22:49:33.261Z,5.80
2023-04-14T22:52:01.333Z,5.80
2023-04-14T22:54:30.442Z,5.80
2023-04-14T22:57:01.297Z,5.70
2023-04-14T22:59:30.952Z,5.70
2023-04-14T23:02:06.655Z,5.60
2023-04-14T23:04:38.041Z,5.70
2023-04-14T23:07:06.862Z,5.60
2023-04-14T23:09:36.178Z,5.50
2023-04-14T23:12:05.622Z,5.60
2023-04-14T23:14:44.061Z,5.60
2023-04-14T23:17:15.283Z,5.60
2023-04-14T23:19:49.073Z,5.50
2023-04-14T23:22:18.191Z,5.50
2023-04-14T23:25:04.019Z,5.50
2023-04-14T23:27:34.663Z,5.50
2023-04-14T23:30:04.344Z,5.50
2023-04-14T23:32:56.398Z,5.50
2023-04-14T23:35:32.479Z,5.50
2023-04-14T23:38:04.380Z,5.40
2023-04-14T23:40:38.160Z,5.40
2023-04-14T23:43:06.220Z,5.40
2023-04-14T23:45:38.246Z,5.40
2023-04-14T23:48:08.373Z,5.40
2023-04-14T23:51:00.141Z,5.40
2023-04-14T23:53:29.981Z,5.30
2023-04-14T23:55:58.315Z,5.20
2023-04-14T23:58:30.168Z,5.10
